sensor_id;sensor_type;location;lat;lon;timestamp;P1;durP1;ratioP1;P2;durP2;ratioP2
12968;SDS011;6549;53.128;8.182;2022-12-04T00:01:27;54.22;;;22.77;;
12968;SDS011;6549;53.128;8.182;2022-12-04T00:04:52;55.33;;;22.83;;
12968;SDS011;6549;53.128;8.182;2022-12-04T00:08:17;50.70;;;22.45;;
12968;SDS011;6549;53.128;8.182;2022-12-04T00:11:22;51.80;;;22.95;;
12968;SDS011;6549;53.128;8.182;2022-12-04T00:17:31;53.13;;;22.63;;
12968;SDS011;6549;53.128;8.182;2022-12-04T00:20:52;53.20;;;23.70;;
12968;SDS011;6549;53.128;8.182;2022-12-04T00:24:07;53.45;;;22.23;;
12968;SDS011;6549;53.128;8.182;2022-12-04T00:30:43;49.45;;;21.52;;
12968;SDS011;6549;53.128;8.182;2022-12-04T00:34:02;51.30;;;22.70;;
12968;SDS011;6549;53.128;8.182;2022-12-04T00:37:17;49.17;;;21.83;;
12968;SDS011;6549;53.128;8.182;2022-12-04T00:40:32;53.55;;;22.67;;
12968;SDS011;6549;53.128;8.182;2022-12-04T00:43:40;57.83;;;23.75;;
12968;SDS011;6549;53.128;8.182;2022-12-04T00:46:41;56.13;;;24.08;;
12968;SDS011;6549;53.128;8.182;2022-12-04T00:49:41;56.58;;;23.48;;
12968;SDS011;6549;53.128;8.182;2022-12-04T00:52:42;53.03;;;23.35;;
12968;SDS011;6549;53.128;8.182;2022-12-04T00:55:42;52.25;;;23.40;;
12968;SDS011;6549;53.128;8.182;2022-12-04T00:58:43;55.83;;;22.88;;
12968;SDS011;6549;53.128;8.182;2022-12-04T01:01:43;56.88;;;23.30;;
12968;SDS011;6549;53.128;8.182;2022-12-04T01:04:43;57.03;;;22.73;;
12968;SDS011;6549;53.128;8.182;2022-12-04T01:07:44;56.67;;;22.92;;
12968;SDS011;6549;53.128;8.182;2022-12-04T01:10:44;57.08;;;23.05;;
12968;SDS011;6549;53.128;8.182;2022-12-04T01:13:45;57.10;;;22.92;;
12968;SDS011;6549;53.128;8.182;2022-12-04T01:16:46;55.78;;;24.35;;
12968;SDS011;6549;53.128;8.182;2022-12-04T01:19:46;53.45;;;23.02;;
12968;SDS011;6549;53.128;8.182;2022-12-04T01:22:46;53.35;;;23.33;;
12968;SDS011;6549;53.128;8.182;2022-12-04T01:25:54;46.42;;;21.83;;
12968;SDS011;6549;53.128;8.182;2022-12-04T01:28:56;54.40;;;22.77;;
12968;SDS011;6549;53.128;8.182;2022-12-04T01:31:56;54.28;;;23.10;;
12968;SDS011;6549;53.128;8.182;2022-12-04T01:34:56;52.33;;;23.25;;
12968;SDS011;6549;53.128;8.182;2022-12-04T01:37:57;50.35;;;22.55;;
12968;SDS011;6549;53.128;8.182;2022-12-04T01:41:00;55.83;;;23.13;;
12968;SDS011;6549;53.128;8.182;2022-12-04T01:47:25;49.58;;;21.90;;
12968;SDS011;6549;53.128;8.182;2022-12-04T01:50:25;49.38;;;21.92;;
12968;SDS011;6549;53.128;8.182;2022-12-04T01:53:25;52.38;;;23.23;;
12968;SDS011;6549;53.128;8.182;2022-12-04T01:56:30;52.30;;;23.02;;
12968;SDS011;6549;53.128;8.182;2022-12-04T01:59:37;52.83;;;23.25;;
12968;SDS011;6549;53.128;8.182;2022-12-04T02:02:42;55.67;;;23.80;;
12968;SDS011;6549;53.128;8.182;2022-12-04T02:05:45;59.67;;;23.80;;
12968;SDS011;6549;53.128;8.182;2022-12-04T02:08:45;55.03;;;22.98;;
12968;SDS011;6549;53.128;8.182;2022-12-04T02:12:31;53.35;;;23.05;;
12968;SDS011;6549;53.128;8.182;2022-12-04T02:15:38;56.72;;;22.10;;
12968;SDS011;6549;53.128;8.182;2022-12-04T02:22:13;51.15;;;22.23;;
12968;SDS011;6549;53.128;8.182;2022-12-04T02:25:34;54.53;;;23.50;;
12968;SDS011;6549;53.128;8.182;2022-12-04T02:32:43;55.42;;;23.45;;
12968;SDS011;6549;53.128;8.182;2022-12-04T02:35:49;54.28;;;21.85;;
12968;SDS011;6549;53.128;8.182;2022-12-04T02:38:54;53.53;;;22.45;;
12968;SDS011;6549;53.128;8.182;2022-12-04T02:42:11;55.63;;;23.23;;
12968;SDS011;6549;53.128;8.182;2022-12-04T02:45:19;54.78;;;23.17;;
12968;SDS011;6549;53.128;8.182;2022-12-04T02:48:25;55.70;;;22.70;;
12968;SDS011;6549;53.128;8.182;2022-12-04T02:51:31;49.38;;;23.10;;
12968;SDS011;6549;53.128;8.182;2022-12-04T02:54:35;56.75;;;24.13;;
12968;SDS011;6549;53.128;8.182;2022-12-04T02:57:39;56.17;;;23.33;;
12968;SDS011;6549;53.128;8.182;2022-12-04T03:00:43;53.35;;;22.42;;
12968;SDS011;6549;53.128;8.182;2022-12-04T03:07:29;53.40;;;23.08;;
12968;SDS011;6549;53.128;8.182;2022-12-04T03:10:37;51.80;;;22.85;;
12968;SDS011;6549;53.128;8.182;2022-12-04T03:13:46;55.88;;;23.08;;
12968;SDS011;6549;53.128;8.182;2022-12-04T03:16:50;49.88;;;22.08;;
12968;SDS011;6549;53.128;8.182;2022-12-04T03:19:57;51.72;;;22.73;;
12968;SDS011;6549;53.128;8.182;2022-12-04T03:23:20;54.88;;;22.88;;
12968;SDS011;6549;53.128;8.182;2022-12-04T03:26:32;52.40;;;22.20;;
12968;SDS011;6549;53.128;8.182;2022-12-04T03:38:54;57.67;;;23.60;;
12968;SDS011;6549;53.128;8.182;2022-12-04T03:42:15;55.53;;;23.40;;
12968;SDS011;6549;53.128;8.182;2022-12-04T03:45:23;59.15;;;23.63;;
12968;SDS011;6549;53.128;8.182;2022-12-04T03:48:27;59.22;;;23.05;;
12968;SDS011;6549;53.128;8.182;2022-12-04T03:51:38;56.08;;;22.85;;
12968;SDS011;6549;53.128;8.182;2022-12-04T03:54:48;57.92;;;23.42;;
12968;SDS011;6549;53.128;8.182;2022-12-04T03:57:51;58.75;;;24.40;;
12968;SDS011;6549;53.128;8.182;2022-12-04T04:00:57;59.65;;;24.77;;
12968;SDS011;6549;53.128;8.182;2022-12-04T04:04:00;57.83;;;24.48;;
12968;SDS011;6549;53.128;8.182;2022-12-04T04:07:08;58.28;;;24.08;;
12968;SDS011;6549;53.128;8.182;2022-12-04T04:10:14;57.80;;;24.02;;
12968;SDS011;6549;53.128;8.182;2022-12-04T04:13:19;60.50;;;24.48;;
12968;SDS011;6549;53.128;8.182;2022-12-04T04:16:48;62.72;;;24.80;;
12968;SDS011;6549;53.128;8.182;2022-12-04T04:20:17;59.65;;;24.73;;
12968;SDS011;6549;53.128;8.182;2022-12-04T04:23:45;53.13;;;22.02;;
12968;SDS011;6549;53.128;8.182;2022-12-04T04:27:08;59.30;;;23.88;;
12968;SDS011;6549;53.128;8.182;2022-12-04T04:30:08;61.33;;;25.88;;
12968;SDS011;6549;53.128;8.182;2022-12-04T04:33:10;61.10;;;24.80;;
12968;SDS011;6549;53.128;8.182;2022-12-04T04:39:43;57.70;;;25.10;;
12968;SDS011;6549;53.128;8.182;2022-12-04T04:43:08;58.70;;;24.65;;
12968;SDS011;6549;53.128;8.182;2022-12-04T04:49:21;63.80;;;25.95;;
12968;SDS011;6549;53.128;8.182;2022-12-04T04:52:24;55.22;;;23.70;;
12968;SDS011;6549;53.128;8.182;2022-12-04T04:55:25;58.90;;;24.80;;
12968;SDS011;6549;53.128;8.182;2022-12-04T04:58:25;54.65;;;23.50;;
12968;SDS011;6549;53.128;8.182;2022-12-04T05:01:26;57.85;;;24.73;;
12968;SDS011;6549;53.128;8.182;2022-12-04T05:04:27;56.17;;;23.92;;
12968;SDS011;6549;53.128;8.182;2022-12-04T05:07:27;57.25;;;23.90;;
12968;SDS011;6549;53.128;8.182;2022-12-04T05:10:28;59.53;;;24.10;;
12968;SDS011;6549;53.128;8.182;2022-12-04T05:13:28;58.08;;;22.83;;
12968;SDS011;6549;53.128;8.182;2022-12-04T05:16:30;53.70;;;23.52;;
12968;SDS011;6549;53.128;8.182;2022-12-04T05:19:32;57.15;;;23.92;;
12968;SDS011;6549;53.128;8.182;2022-12-04T05:22:51;51.65;;;23.27;;
12968;SDS011;6549;53.128;8.182;2022-12-04T05:25:57;59.70;;;23.92;;
12968;SDS011;6549;53.128;8.182;2022-12-04T05:29:01;59.85;;;23.30;;
12968;SDS011;6549;53.128;8.182;2022-12-04T05:32:02;53.65;;;22.80;;
12968;SDS011;6549;53.128;8.182;2022-12-04T05:35:03;54.78;;;22.70;;
12968;SDS011;6549;53.128;8.182;2022-12-04T05:38:04;55.35;;;24.05;;
12968;SDS011;6549;53.128;8.182;2022-12-04T05:41:04;55.05;;;22.73;;
12968;SDS011;6549;53.128;8.182;2022-12-04T05:44:05;57.45;;;24.33;;
12968;SDS011;6549;53.128;8.182;2022-12-04T05:47:06;55.58;;;23.73;;
12968;SDS011;6549;53.128;8.182;2022-12-04T05:50:07;57.33;;;24.10;;
12968;SDS011;6549;53.128;8.182;2022-12-04T05:53:08;48.53;;;22.37;;
12968;SDS011;6549;53.128;8.182;2022-12-04T05:56:09;51.25;;;22.67;;
12968;SDS011;6549;53.128;8.182;2022-12-04T05:59:09;48.40;;;21.98;;
12968;SDS011;6549;53.128;8.182;2022-12-04T06:02:09;50.72;;;22.15;;
12968;SDS011;6549;53.128;8.182;2022-12-04T06:05:10;53.33;;;22.33;;
12968;SDS011;6549;53.128;8.182;2022-12-04T06:08:10;50.15;;;22.42;;
12968;SDS011;6549;53.128;8.182;2022-12-04T06:11:15;50.22;;;21.63;;
12968;SDS011;6549;53.128;8.182;2022-12-04T06:14:18;56.55;;;23.15;;
12968;SDS011;6549;53.128;8.182;2022-12-04T06:17:18;48.30;;;20.70;;
12968;SDS011;6549;53.128;8.182;2022-12-04T06:20:18;51.72;;;21.75;;
12968;SDS011;6549;53.128;8.182;2022-12-04T06:23:19;48.00;;;20.80;;
12968;SDS011;6549;53.128;8.182;2022-12-04T06:26:20;49.45;;;21.83;;
12968;SDS011;6549;53.128;8.182;2022-12-04T06:29:21;52.55;;;21.73;;
12968;SDS011;6549;53.128;8.182;2022-12-04T06:32:21;50.53;;;22.38;;
12968;SDS011;6549;53.128;8.182;2022-12-04T06:35:21;56.47;;;22.50;;
12968;SDS011;6549;53.128;8.182;2022-12-04T06:38:22;48.13;;;20.75;;
12968;SDS011;6549;53.128;8.182;2022-12-04T06:41:23;48.05;;;20.83;;
12968;SDS011;6549;53.128;8.182;2022-12-04T06:44:24;50.70;;;21.08;;
12968;SDS011;6549;53.128;8.182;2022-12-04T06:47:25;48.30;;;21.23;;
12968;SDS011;6549;53.128;8.182;2022-12-04T06:50:25;49.38;;;21.05;;
12968;SDS011;6549;53.128;8.182;2022-12-04T06:53:26;49.90;;;22.13;;
12968;SDS011;6549;53.128;8.182;2022-12-04T06:56:30;50.45;;;21.90;;
12968;SDS011;6549;53.128;8.182;2022-12-04T06:59:31;45.58;;;21.52;;
12968;SDS011;6549;53.128;8.182;2022-12-04T07:02:32;47.90;;;20.75;;
12968;SDS011;6549;53.128;8.182;2022-12-04T07:05:33;47.17;;;20.23;;
12968;SDS011;6549;53.128;8.182;2022-12-04T07:08:33;53.05;;;22.10;;
12968;SDS011;6549;53.128;8.182;2022-12-04T07:11:33;48.67;;;21.13;;
12968;SDS011;6549;53.128;8.182;2022-12-04T07:14:34;46.85;;;21.13;;
12968;SDS011;6549;53.128;8.182;2022-12-04T07:17:34;46.38;;;21.02;;
12968;SDS011;6549;53.128;8.182;2022-12-04T07:20:34;47.47;;;21.23;;
12968;SDS011;6549;53.128;8.182;2022-12-04T07:23:39;47.00;;;20.30;;
12968;SDS011;6549;53.128;8.182;2022-12-04T07:26:39;48.47;;;21.42;;
12968;SDS011;6549;53.128;8.182;2022-12-04T07:29:39;46.13;;;21.50;;
12968;SDS011;6549;53.128;8.182;2022-12-04T07:32:41;44.95;;;20.60;;
12968;SDS011;6549;53.128;8.182;2022-12-04T07:35:41;48.05;;;21.20;;
12968;SDS011;6549;53.128;8.182;2022-12-04T07:38:42;45.60;;;21.08;;
12968;SDS011;6549;53.128;8.182;2022-12-04T07:41:42;46.40;;;20.55;;
12968;SDS011;6549;53.128;8.182;2022-12-04T07:44:43;46.00;;;20.27;;
12968;SDS011;6549;53.128;8.182;2022-12-04T07:47:43;46.97;;;21.20;;
12968;SDS011;6549;53.128;8.182;2022-12-04T07:50:43;45.97;;;20.30;;
12968;SDS011;6549;53.128;8.182;2022-12-04T07:53:44;47.97;;;21.33;;
12968;SDS011;6549;53.128;8.182;2022-12-04T07:56:45;50.67;;;21.05;;
12968;SDS011;6549;53.128;8.182;2022-12-04T07:59:45;46.33;;;21.70;;
12968;SDS011;6549;53.128;8.182;2022-12-04T08:02:45;47.60;;;20.40;;
12968;SDS011;6549;53.128;8.182;2022-12-04T08:05:46;46.42;;;20.95;;
12968;SDS011;6549;53.128;8.182;2022-12-04T08:08:46;46.38;;;21.35;;
12968;SDS011;6549;53.128;8.182;2022-12-04T08:11:47;42.85;;;18.83;;
12968;SDS011;6549;53.128;8.182;2022-12-04T08:14:48;48.80;;;22.58;;
12968;SDS011;6549;53.128;8.182;2022-12-04T08:17:49;43.33;;;20.40;;
12968;SDS011;6549;53.128;8.182;2022-12-04T08:20:49;47.10;;;20.55;;
12968;SDS011;6549;53.128;8.182;2022-12-04T08:23:50;48.53;;;21.25;;
12968;SDS011;6549;53.128;8.182;2022-12-04T08:26:51;46.88;;;20.83;;
12968;SDS011;6549;53.128;8.182;2022-12-04T08:29:52;46.58;;;20.77;;
12968;SDS011;6549;53.128;8.182;2022-12-04T08:32:52;44.92;;;19.88;;
12968;SDS011;6549;53.128;8.182;2022-12-04T08:35:52;47.20;;;20.75;;
12968;SDS011;6549;53.128;8.182;2022-12-04T08:38:53;47.40;;;21.10;;
12968;SDS011;6549;53.128;8.182;2022-12-04T08:41:54;47.10;;;19.90;;
12968;SDS011;6549;53.128;8.182;2022-12-04T08:44:54;41.95;;;20.17;;
12968;SDS011;6549;53.128;8.182;2022-12-04T08:47:55;47.47;;;20.20;;
12968;SDS011;6549;53.128;8.182;2022-12-04T08:50:55;45.80;;;20.17;;
12968;SDS011;6549;53.128;8.182;2022-12-04T08:53:57;45.15;;;21.45;;
12968;SDS011;6549;53.128;8.182;2022-12-04T08:57:01;42.63;;;19.92;;
12968;SDS011;6549;53.128;8.182;2022-12-04T09:00:02;44.63;;;20.35;;
12968;SDS011;6549;53.128;8.182;2022-12-04T09:03:03;43.97;;;19.75;;
12968;SDS011;6549;53.128;8.182;2022-12-04T09:06:04;40.03;;;18.02;;
12968;SDS011;6549;53.128;8.182;2022-12-04T09:09:06;38.85;;;18.90;;
12968;SDS011;6549;53.128;8.182;2022-12-04T09:12:06;39.83;;;18.10;;
12968;SDS011;6549;53.128;8.182;2022-12-04T09:15:07;40.28;;;18.85;;
12968;SDS011;6549;53.128;8.182;2022-12-04T09:18:07;41.42;;;18.70;;
12968;SDS011;6549;53.128;8.182;2022-12-04T09:21:09;39.72;;;18.52;;
12968;SDS011;6549;53.128;8.182;2022-12-04T09:24:11;39.38;;;17.85;;
12968;SDS011;6549;53.128;8.182;2022-12-04T09:27:12;40.55;;;18.35;;
12968;SDS011;6549;53.128;8.182;2022-12-04T09:30:13;40.72;;;17.98;;
12968;SDS011;6549;53.128;8.182;2022-12-04T09:33:13;45.03;;;20.17;;
12968;SDS011;6549;53.128;8.182;2022-12-04T09:36:14;42.65;;;18.85;;
12968;SDS011;6549;53.128;8.182;2022-12-04T09:39:17;39.78;;;18.67;;
12968;SDS011;6549;53.128;8.182;2022-12-04T09:45:29;42.10;;;18.02;;
12968;SDS011;6549;53.128;8.182;2022-12-04T09:48:37;39.53;;;19.15;;
12968;SDS011;6549;53.128;8.182;2022-12-04T09:51:41;39.88;;;18.08;;
12968;SDS011;6549;53.128;8.182;2022-12-04T09:54:43;43.87;;;19.47;;
12968;SDS011;6549;53.128;8.182;2022-12-04T09:57:46;41.47;;;19.13;;
12968;SDS011;6549;53.128;8.182;2022-12-04T10:03:49;43.47;;;19.42;;
12968;SDS011;6549;53.128;8.182;2022-12-04T10:27:31;42.10;;;19.92;;
12968;SDS011;6549;53.128;8.182;2022-12-04T10:30:37;39.40;;;18.73;;
12968;SDS011;6549;53.128;8.182;2022-12-04T10:33:44;41.83;;;19.08;;
12968;SDS011;6549;53.128;8.182;2022-12-04T10:36:54;43.90;;;19.00;;
12968;SDS011;6549;53.128;8.182;2022-12-04T10:40:03;42.35;;;19.73;;
12968;SDS011;6549;53.128;8.182;2022-12-04T10:43:30;46.72;;;20.55;;
12968;SDS011;6549;53.128;8.182;2022-12-04T10:46:45;44.92;;;18.92;;
12968;SDS011;6549;53.128;8.182;2022-12-04T10:49:45;43.20;;;18.85;;
12968;SDS011;6549;53.128;8.182;2022-12-04T10:52:45;45.55;;;19.75;;
12968;SDS011;6549;53.128;8.182;2022-12-04T10:55:46;41.35;;;18.77;;
12968;SDS011;6549;53.128;8.182;2022-12-04T11:02:09;42.33;;;19.80;;
12968;SDS011;6549;53.128;8.182;2022-12-04T11:05:29;40.28;;;18.95;;
12968;SDS011;6549;53.128;8.182;2022-12-04T11:08:40;40.38;;;19.13;;
12968;SDS011;6549;53.128;8.182;2022-12-04T11:11:42;43.05;;;19.50;;
12968;SDS011;6549;53.128;8.182;2022-12-04T11:14:43;40.60;;;19.08;;
12968;SDS011;6549;53.128;8.182;2022-12-04T11:17:44;43.75;;;20.50;;
12968;SDS011;6549;53.128;8.182;2022-12-04T11:23:56;42.13;;;19.33;;
12968;SDS011;6549;53.128;8.182;2022-12-04T11:26:57;42.60;;;20.83;;
12968;SDS011;6549;53.128;8.182;2022-12-04T11:30:05;42.63;;;19.33;;
12968;SDS011;6549;53.128;8.182;2022-12-04T11:33:14;45.80;;;19.88;;
12968;SDS011;6549;53.128;8.182;2022-12-04T11:36:21;45.90;;;20.50;;
12968;SDS011;6549;53.128;8.182;2022-12-04T11:39:37;43.72;;;20.10;;
12968;SDS011;6549;53.128;8.182;2022-12-04T11:42:40;41.13;;;20.02;;
12968;SDS011;6549;53.128;8.182;2022-12-04T11:45:40;44.72;;;19.80;;
12968;SDS011;6549;53.128;8.182;2022-12-04T11:48:42;41.83;;;19.42;;
12968;SDS011;6549;53.128;8.182;2022-12-04T12:11:23;48.67;;;20.52;;
12968;SDS011;6549;53.128;8.182;2022-12-04T12:21:31;44.90;;;21.10;;
12968;SDS011;6549;53.128;8.182;2022-12-04T12:31:35;50.65;;;21.63;;
12968;SDS011;6549;53.128;8.182;2022-12-04T12:34:42;48.72;;;21.98;;
12968;SDS011;6549;53.128;8.182;2022-12-04T12:37:48;46.47;;;20.35;;
12968;SDS011;6549;53.128;8.182;2022-12-04T12:41:00;45.60;;;19.98;;
12968;SDS011;6549;53.128;8.182;2022-12-04T12:44:09;47.95;;;21.27;;
12968;SDS011;6549;53.128;8.182;2022-12-04T12:47:21;49.95;;;21.48;;
12968;SDS011;6549;53.128;8.182;2022-12-04T12:50:43;48.08;;;20.88;;
12968;SDS011;6549;53.128;8.182;2022-12-04T12:53:48;45.38;;;19.25;;
12968;SDS011;6549;53.128;8.182;2022-12-04T12:56:52;49.35;;;20.50;;
12968;SDS011;6549;53.128;8.182;2022-12-04T13:00:05;45.08;;;20.45;;
12968;SDS011;6549;53.128;8.182;2022-12-04T13:03:20;41.83;;;19.33;;
12968;SDS011;6549;53.128;8.182;2022-12-04T13:06:24;42.42;;;18.67;;
12968;SDS011;6549;53.128;8.182;2022-12-04T13:09:33;45.88;;;19.40;;
12968;SDS011;6549;53.128;8.182;2022-12-04T13:12:45;46.92;;;18.30;;
12968;SDS011;6549;53.128;8.182;2022-12-04T13:15:49;44.47;;;20.20;;
12968;SDS011;6549;53.128;8.182;2022-12-04T13:22:15;41.00;;;20.38;;
12968;SDS011;6549;53.128;8.182;2022-12-04T13:25:35;44.67;;;20.55;;
12968;SDS011;6549;53.128;8.182;2022-12-04T13:42:25;42.42;;;20.00;;
12968;SDS011;6549;53.128;8.182;2022-12-04T13:45:28;44.65;;;20.73;;
12968;SDS011;6549;53.128;8.182;2022-12-04T13:48:34;43.17;;;19.38;;
12968;SDS011;6549;53.128;8.182;2022-12-04T13:51:40;46.20;;;20.23;;
12968;SDS011;6549;53.128;8.182;2022-12-04T13:54:41;44.90;;;20.05;;
12968;SDS011;6549;53.128;8.182;2022-12-04T13:57:51;49.03;;;20.60;;
12968;SDS011;6549;53.128;8.182;2022-12-04T14:01:03;44.65;;;20.73;;
12968;SDS011;6549;53.128;8.182;2022-12-04T14:04:28;49.50;;;20.45;;
12968;SDS011;6549;53.128;8.182;2022-12-04T14:07:32;44.58;;;20.60;;
12968;SDS011;6549;53.128;8.182;2022-12-04T14:10:36;49.97;;;21.73;;
12968;SDS011;6549;53.128;8.182;2022-12-04T14:13:42;46.65;;;20.77;;
12968;SDS011;6549;53.128;8.182;2022-12-04T14:16:46;43.85;;;21.23;;
12968;SDS011;6549;53.128;8.182;2022-12-04T14:19:52;45.20;;;21.05;;
12968;SDS011;6549;53.128;8.182;2022-12-04T14:22:54;50.65;;;20.65;;
12968;SDS011;6549;53.128;8.182;2022-12-04T14:26:17;49.05;;;21.35;;
12968;SDS011;6549;53.128;8.182;2022-12-04T14:29:33;50.22;;;21.20;;
12968;SDS011;6549;53.128;8.182;2022-12-04T14:32:40;44.92;;;20.70;;
12968;SDS011;6549;53.128;8.182;2022-12-04T14:35:43;51.95;;;22.05;;
12968;SDS011;6549;53.128;8.182;2022-12-04T14:38:47;46.75;;;21.13;;
12968;SDS011;6549;53.128;8.182;2022-12-04T14:41:52;49.15;;;21.55;;
12968;SDS011;6549;53.128;8.182;2022-12-04T14:45:04;49.90;;;22.10;;
12968;SDS011;6549;53.128;8.182;2022-12-04T14:48:25;46.38;;;20.42;;
12968;SDS011;6549;53.128;8.182;2022-12-04T14:51:41;44.45;;;20.67;;
12968;SDS011;6549;53.128;8.182;2022-12-04T14:58:16;44.60;;;19.70;;
12968;SDS011;6549;53.128;8.182;2022-12-04T15:01:33;47.28;;;21.25;;
12968;SDS011;6549;53.128;8.182;2022-12-04T15:04:36;46.92;;;21.02;;
12968;SDS011;6549;53.128;8.182;2022-12-04T15:07:43;41.83;;;18.85;;
12968;SDS011;6549;53.128;8.182;2022-12-04T15:10:49;41.20;;;19.80;;
12968;SDS011;6549;53.128;8.182;2022-12-04T15:14:12;42.90;;;19.08;;
12968;SDS011;6549;53.128;8.182;2022-12-04T15:17:14;44.38;;;19.92;;
12968;SDS011;6549;53.128;8.182;2022-12-04T15:20:17;43.40;;;19.42;;
12968;SDS011;6549;53.128;8.182;2022-12-04T15:26:30;46.70;;;19.65;;
12968;SDS011;6549;53.128;8.182;2022-12-04T15:29:30;40.38;;;20.23;;
12968;SDS011;6549;53.128;8.182;2022-12-04T15:32:36;40.45;;;18.58;;
12968;SDS011;6549;53.128;8.182;2022-12-04T15:35:37;42.22;;;19.25;;
12968;SDS011;6549;53.128;8.182;2022-12-04T15:38:41;42.05;;;19.05;;
12968;SDS011;6549;53.128;8.182;2022-12-04T15:41:42;37.80;;;19.23;;
12968;SDS011;6549;53.128;8.182;2022-12-04T15:44:51;41.60;;;18.90;;
12968;SDS011;6549;53.128;8.182;2022-12-04T15:47:52;46.90;;;20.90;;
12968;SDS011;6549;53.128;8.182;2022-12-04T15:51:00;41.83;;;19.05;;
12968;SDS011;6549;53.128;8.182;2022-12-04T15:54:09;38.70;;;19.13;;
12968;SDS011;6549;53.128;8.182;2022-12-04T16:00:39;41.20;;;19.13;;
12968;SDS011;6549;53.128;8.182;2022-12-04T16:06:45;39.70;;;19.03;;
12968;SDS011;6549;53.128;8.182;2022-12-04T16:09:50;42.15;;;20.23;;
12968;SDS011;6549;53.128;8.182;2022-12-04T16:12:53;42.53;;;20.08;;
12968;SDS011;6549;53.128;8.182;2022-12-04T16:16:09;42.38;;;19.90;;
12968;SDS011;6549;53.128;8.182;2022-12-04T16:19:14;38.27;;;20.23;;
12968;SDS011;6549;53.128;8.182;2022-12-04T16:22:16;41.90;;;19.17;;
12968;SDS011;6549;53.128;8.182;2022-12-04T16:25:19;40.60;;;19.92;;
12968;SDS011;6549;53.128;8.182;2022-12-04T16:28:19;41.28;;;19.83;;
12968;SDS011;6549;53.128;8.182;2022-12-04T16:31:20;43.72;;;20.73;;
12968;SDS011;6549;53.128;8.182;2022-12-04T16:34:22;40.57;;;20.87;;
12968;SDS011;6549;53.128;8.182;2022-12-04T16:37:22;38.45;;;19.08;;
12968;SDS011;6549;53.128;8.182;2022-12-04T16:40:24;44.28;;;21.20;;
12968;SDS011;6549;53.128;8.182;2022-12-04T16:43:24;42.50;;;19.83;;
12968;SDS011;6549;53.128;8.182;2022-12-04T16:46:25;42.55;;;20.90;;
12968;SDS011;6549;53.128;8.182;2022-12-04T16:49:27;43.50;;;20.35;;
12968;SDS011;6549;53.128;8.182;2022-12-04T16:52:27;45.78;;;21.63;;
12968;SDS011;6549;53.128;8.182;2022-12-04T16:55:36;38.38;;;20.52;;
12968;SDS011;6549;53.128;8.182;2022-12-04T16:58:38;43.33;;;21.17;;
12968;SDS011;6549;53.128;8.182;2022-12-04T17:01:40;44.55;;;20.77;;
12968;SDS011;6549;53.128;8.182;2022-12-04T17:04:44;45.28;;;21.00;;
12968;SDS011;6549;53.128;8.182;2022-12-04T17:07:44;44.90;;;19.80;;
12968;SDS011;6549;53.128;8.182;2022-12-04T17:10:45;45.42;;;21.45;;
12968;SDS011;6549;53.128;8.182;2022-12-04T17:13:45;42.92;;;19.88;;
12968;SDS011;6549;53.128;8.182;2022-12-04T17:16:46;39.25;;;19.80;;
12968;SDS011;6549;53.128;8.182;2022-12-04T17:19:46;42.63;;;20.38;;
12968;SDS011;6549;53.128;8.182;2022-12-04T17:22:47;41.58;;;19.55;;
12968;SDS011;6549;53.128;8.182;2022-12-04T17:25:48;44.10;;;21.92;;
12968;SDS011;6549;53.128;8.182;2022-12-04T17:28:49;40.03;;;19.45;;
12968;SDS011;6549;53.128;8.182;2022-12-04T17:31:49;42.95;;;20.85;;
12968;SDS011;6549;53.128;8.182;2022-12-04T17:34:50;42.00;;;20.35;;
12968;SDS011;6549;53.128;8.182;2022-12-04T17:37:51;43.08;;;20.27;;
12968;SDS011;6549;53.128;8.182;2022-12-04T17:40:58;43.25;;;19.55;;
12968;SDS011;6549;53.128;8.182;2022-12-04T17:44:02;43.85;;;20.98;;
12968;SDS011;6549;53.128;8.182;2022-12-04T17:47:03;42.45;;;20.88;;
12968;SDS011;6549;53.128;8.182;2022-12-04T17:50:04;43.40;;;20.67;;
12968;SDS011;6549;53.128;8.182;2022-12-04T17:53:05;45.90;;;21.27;;
12968;SDS011;6549;53.128;8.182;2022-12-04T17:56:06;46.30;;;20.63;;
12968;SDS011;6549;53.128;8.182;2022-12-04T17:59:09;44.55;;;21.35;;
12968;SDS011;6549;53.128;8.182;2022-12-04T18:02:09;41.20;;;19.67;;
12968;SDS011;6549;53.128;8.182;2022-12-04T18:05:11;48.67;;;22.37;;
12968;SDS011;6549;53.128;8.182;2022-12-04T18:08:11;44.55;;;20.30;;
12968;SDS011;6549;53.128;8.182;2022-12-04T18:11:11;47.00;;;22.45;;
12968;SDS011;6549;53.128;8.182;2022-12-04T18:14:16;44.83;;;22.38;;
12968;SDS011;6549;53.128;8.182;2022-12-04T18:17:18;46.88;;;21.63;;
12968;SDS011;6549;53.128;8.182;2022-12-04T18:20:19;46.42;;;21.33;;
12968;SDS011;6549;53.128;8.182;2022-12-04T18:23:20;47.80;;;21.35;;
12968;SDS011;6549;53.128;8.182;2022-12-04T18:26:21;42.78;;;21.45;;
12968;SDS011;6549;53.128;8.182;2022-12-04T18:29:23;42.60;;;21.20;;
12968;SDS011;6549;53.128;8.182;2022-12-04T18:32:25;44.22;;;21.05;;
12968;SDS011;6549;53.128;8.182;2022-12-04T18:35:25;46.22;;;22.75;;
12968;SDS011;6549;53.128;8.182;2022-12-04T18:38:27;44.50;;;21.70;;
12968;SDS011;6549;53.128;8.182;2022-12-04T18:41:31;49.03;;;21.60;;
12968;SDS011;6549;53.128;8.182;2022-12-04T18:44:32;46.15;;;21.50;;
12968;SDS011;6549;53.128;8.182;2022-12-04T18:47:32;47.30;;;21.27;;
12968;SDS011;6549;53.128;8.182;2022-12-04T18:50:32;46.78;;;22.42;;
12968;SDS011;6549;53.128;8.182;2022-12-04T18:53:33;48.53;;;22.67;;
12968;SDS011;6549;53.128;8.182;2022-12-04T18:56:33;47.65;;;21.25;;
12968;SDS011;6549;53.128;8.182;2022-12-04T18:59:34;46.75;;;22.92;;
12968;SDS011;6549;53.128;8.182;2022-12-04T19:02:36;46.35;;;22.52;;
12968;SDS011;6549;53.128;8.182;2022-12-04T19:05:36;45.25;;;21.13;;
12968;SDS011;6549;53.128;8.182;2022-12-04T19:08:37;46.25;;;22.50;;
12968;SDS011;6549;53.128;8.182;2022-12-04T19:11:39;45.80;;;22.65;;
12968;SDS011;6549;53.128;8.182;2022-12-04T19:14:40;47.13;;;22.33;;
12968;SDS011;6549;53.128;8.182;2022-12-04T19:17:40;45.50;;;21.45;;
12968;SDS011;6549;53.128;8.182;2022-12-04T19:20:41;46.63;;;21.95;;
12968;SDS011;6549;53.128;8.182;2022-12-04T19:23:49;47.13;;;21.77;;
12968;SDS011;6549;53.128;8.182;2022-12-04T19:26:53;46.80;;;22.40;;
12968;SDS011;6549;53.128;8.182;2022-12-04T19:29:54;45.60;;;22.80;;
12968;SDS011;6549;53.128;8.182;2022-12-04T19:32:54;46.28;;;21.95;;
12968;SDS011;6549;53.128;8.182;2022-12-04T19:39:00;49.88;;;21.80;;
12968;SDS011;6549;53.128;8.182;2022-12-04T19:42:01;49.58;;;22.17;;
12968;SDS011;6549;53.128;8.182;2022-12-04T19:45:01;46.25;;;22.05;;
12968;SDS011;6549;53.128;8.182;2022-12-04T19:48:01;50.42;;;22.33;;
12968;SDS011;6549;53.128;8.182;2022-12-04T19:51:03;54.15;;;24.48;;
12968;SDS011;6549;53.128;8.182;2022-12-04T19:54:05;54.10;;;23.73;;
12968;SDS011;6549;53.128;8.182;2022-12-04T19:57:07;51.80;;;24.45;;
12968;SDS011;6549;53.128;8.182;2022-12-04T20:00:08;50.63;;;23.90;;
12968;SDS011;6549;53.128;8.182;2022-12-04T20:03:08;46.72;;;20.60;;
12968;SDS011;6549;53.128;8.182;2022-12-04T20:06:13;42.88;;;21.20;;
12968;SDS011;6549;53.128;8.182;2022-12-04T20:09:17;43.75;;;21.45;;
12968;SDS011;6549;53.128;8.182;2022-12-04T20:12:18;43.35;;;21.35;;
12968;SDS011;6549;53.128;8.182;2022-12-04T20:15:19;43.50;;;21.42;;
12968;SDS011;6549;53.128;8.182;2022-12-04T20:18:19;49.85;;;22.65;;
12968;SDS011;6549;53.128;8.182;2022-12-04T20:21:20;44.63;;;21.70;;
12968;SDS011;6549;53.128;8.182;2022-12-04T20:24:24;41.00;;;20.98;;
12968;SDS011;6549;53.128;8.182;2022-12-04T20:27:24;47.97;;;22.52;;
12968;SDS011;6549;53.128;8.182;2022-12-04T20:30:25;44.63;;;21.02;;